createdAt,value
2018-11-29T17:13:20.787Z,3.9
2018-11-29T17:14:20.781Z,3.9
2018-11-29T17:15:20.718Z,3.9
2018-11-29T17:16:20.808Z,3.9
2018-11-29T17:17:20.765Z,1.8
2018-11-29T17:18:20.828Z,0
2018-11-29T17:19:20.715Z,0
2018-11-29T17:20:20.852Z,0
2018-11-29T17:21:20.769Z,0
2018-11-29T17:22:20.801Z,0
2018-11-29T17:23:20.768Z,0
2018-11-29T17:24:21.340Z,0
2018-11-29T17:25:20.702Z,0
2018-11-29T17:26:20.744Z,0
2018-11-29T17:27:20.783Z,0
2018-11-29T17:28:20.735Z,0
2018-11-29T17:29:20.691Z,0
2018-11-29T17:30:20.690Z,3.9
2018-11-29T17:31:20.812Z,1.8
2018-11-29T17:32:20.736Z,0
2018-11-29T17:33:20.796Z,6.6
2018-11-29T17:34:20.737Z,3.9
2018-11-29T17:35:20.736Z,6.6
2018-11-29T17:36:20.855Z,3.9
2018-11-29T17:37:20.736Z,3.9
2018-11-29T17:38:20.774Z,9.5
2018-11-29T17:39:20.838Z,3.9
2018-11-29T17:40:20.745Z,6.6
2018-11-29T17:41:23.998Z,6.6
2018-11-29T17:42:24.155Z,6.6
2018-11-29T17:43:23.332Z,6.6
2018-11-29T17:44:24.301Z,6.6
2018-11-29T17:45:24.639Z,3.9
2018-11-29T17:46:23.653Z,3.9
2018-11-29T17:47:24.400Z,6.6
2018-11-29T17:48:25.613Z,3.9
2018-11-29T17:49:23.514Z,1.8
2018-11-29T17:50:24.561Z,0
2018-11-29T17:51:23.407Z,3.9
2018-11-29T17:52:24.669Z,3.9
2018-11-29T17:53:25.631Z,12.4
2018-11-29T17:54:24.331Z,9.5
2018-11-29T17:55:25.923Z,3.9
2018-11-29T17:56:25.526Z,6.6
2018-11-29T17:57:24.170Z,12.4
2018-11-29T17:58:25.137Z,6.6
2018-11-29T17:59:24.241Z,6.6
2018-11-29T18:00:24.378Z,6.6
2018-11-29T18:01:24.228Z,6.6
2018-11-29T18:02:25.690Z,1.8
2018-11-29T18:03:24.862Z,3.9
2018-11-29T18:04:24.358Z,3.9
2018-11-29T18:05:24.285Z,1.8
2018-11-29T18:06:27.091Z,0
2018-11-29T18:07:27.494Z,3.9
2018-11-29T18:08:24.708Z,3.9
2018-11-29T18:09:24.447Z,3.9
2018-11-29T18:10:24.282Z,0
2018-11-29T18:11:25.341Z,1.8
2018-11-29T18:12:24.696Z,9.5
2018-11-29T18:13:24.757Z,3.9
2018-11-29T18:14:24.223Z,15.4
2018-11-29T18:15:24.259Z,12.4
2018-11-29T18:16:24.486Z,12.4
2018-11-29T18:17:24.159Z,9.5
2018-11-29T18:18:26.221Z,12.4
2018-11-29T18:19:23.328Z,12.4
2018-11-29T18:20:24.218Z,12.4
2018-11-29T18:21:24.074Z,12.4
2018-11-29T18:22:24.350Z,9.5
2018-11-29T18:23:24.320Z,18.3
2018-11-29T18:24:24.337Z,9.5
2018-11-29T18:25:23.928Z,9.5
2018-11-29T18:26:24.042Z,9.5
2018-11-29T18:27:23.935Z,9.5
2018-11-29T18:28:24.408Z,6.6
2018-11-29T18:29:25.724Z,3.9
2018-11-29T18:30:24.130Z,1.8
2018-11-29T18:31:24.364Z,6.6
2018-11-29T18:32:24.363Z,9.5
2018-11-29T18:33:23.969Z,15.4
2018-11-29T18:34:24.240Z,9.5
2018-11-29T18:36:23.659Z,9.5
2018-11-29T18:37:23.345Z,1.8
2018-11-29T18:38:23.321Z,9.5
2018-11-29T18:39:23.305Z,6.6
2018-11-29T18:40:23.297Z,0
2018-11-29T18:41:23.465Z,6.6
2018-11-29T18:42:23.283Z,1.8
2018-11-29T18:43:23.359Z,0
2018-11-29T18:44:23.358Z,0
2018-11-29T18:45:23.327Z,0
2018-11-29T18:46:23.496Z,1.8
2018-11-29T18:47:23.284Z,3.9
2018-11-29T18:48:23.444Z,3.9
2018-11-29T18:49:23.311Z,1.8
2018-11-29T18:50:23.433Z,1.8
2018-11-29T18:51:23.292Z,6.6
2018-11-29T18:52:23.271Z,6.6
2018-11-29T18:53:23.324Z,9.5
2018-11-29T18:54:23.299Z,12.4
2018-11-29T18:55:23.428Z,15.4
2018-11-29T18:56:23.277Z,12.4
2018-11-29T18:58:25.395Z,3.9
2018-11-29T18:59:25.395Z,12.4
2018-11-29T19:00:25.440Z,3.9
2018-11-29T19:01:25.363Z,3.9
2018-11-29T19:02:27.385Z,6.6
2018-11-29T19:03:25.362Z,9.5
2018-11-29T19:04:25.374Z,12.4
2018-11-29T19:05:25.454Z,15.4
2018-11-29T19:06:25.375Z,9.5
2018-11-29T19:07:25.399Z,18.3
2018-11-29T19:08:25.349Z,6.6
2018-11-29T19:09:25.350Z,21.3
2018-11-29T19:10:25.404Z,15.4
2018-11-29T19:11:25.524Z,15.4
2018-11-29T19:12:25.392Z,15.4
2018-11-29T19:13:25.374Z,15.4
2018-11-29T19:14:25.337Z,30.3
2018-11-29T19:15:25.372Z,12.4
2018-11-29T19:16:25.375Z,21.3
2018-11-29T19:17:27.454Z,15.4
2018-11-29T19:18:25.292Z,9.5
2018-11-29T19:19:25.307Z,21.3
2018-11-29T19:20:25.349Z,6.6
2018-11-29T19:21:25.450Z,1.8
2018-11-29T19:22:25.342Z,6.6
2018-11-29T19:23:25.355Z,18.3
2018-11-29T19:24:25.360Z,9.5
2018-11-29T19:25:25.343Z,3.9
2018-11-29T19:26:25.401Z,6.6
2018-11-29T19:27:25.386Z,6.6
2018-11-29T19:28:25.374Z,12.4
2018-11-29T19:29:25.386Z,6.6
2018-11-29T19:30:25.328Z,1.8
2018-11-29T19:31:25.330Z,1.8
2018-11-29T19:32:25.319Z,0
2018-11-29T19:33:25.399Z,0
2018-11-29T19:34:25.723Z,0
2018-11-29T19:35:25.755Z,0
2018-11-29T19:36:25.410Z,0
2018-11-29T19:37:25.316Z,0
2018-11-29T19:38:25.341Z,1.8
2018-11-29T19:39:25.602Z,0
2018-11-29T19:40:25.377Z,0
2018-11-29T19:41:25.385Z,0
2018-11-29T19:42:25.292Z,0
2018-11-29T19:43:25.402Z,0
2018-11-29T19:44:25.386Z,0
2018-11-29T19:45:25.451Z,0
2018-11-29T19:46:25.284Z,0
2018-11-29T19:47:25.400Z,0
2018-11-29T19:48:25.729Z,6.6
2018-11-29T19:49:25.302Z,21.3
2018-11-29T19:50:25.304Z,21.3
2018-11-29T19:51:25.305Z,15.4
2018-11-29T19:52:25.283Z,15.4
2018-11-29T19:53:25.394Z,9.5
2018-11-29T19:54:25.317Z,12.4
2018-11-29T19:55:25.356Z,9.5
2018-11-29T19:56:25.451Z,24.3
2018-11-29T19:57:25.658Z,27.3
2018-11-29T19:58:25.261Z,24.3
2018-11-29T19:59:25.326Z,24.3
2018-11-29T20:00:25.372Z,15.4
2018-11-29T20:01:25.290Z,15.4
2018-11-29T20:02:25.368Z,15.4
2018-11-29T20:03:25.299Z,21.3
2018-11-29T20:04:25.279Z,18.3
2018-11-29T20:05:25.299Z,18.3
2018-11-29T20:06:25.264Z,18.3
2018-11-29T20:07:25.386Z,18.3
2018-11-29T20:08:25.257Z,18.3
2018-11-29T20:09:25.399Z,15.4
2018-11-29T20:10:25.317Z,15.4
2018-11-29T20:11:25.308Z,15.4
2018-11-29T20:12:25.385Z,18.3
2018-11-29T20:13:25.345Z,12.4
2018-11-29T20:14:25.454Z,18.3
2018-11-29T20:15:25.354Z,18.3
2018-11-29T20:16:25.409Z,15.4
2018-11-29T20:17:25.296Z,15.4
2018-11-29T20:18:25.446Z,15.4
2018-11-29T20:19:25.312Z,3.9
2018-11-29T20:20:25.291Z,1.8
2018-11-29T20:21:25.346Z,1.8
2018-11-29T20:22:25.306Z,6.6
2018-11-29T20:23:25.416Z,3.9
2018-11-29T20:24:25.335Z,1.8
2018-11-29T20:25:25.322Z,3.9
2018-11-29T20:26:25.317Z,1.8
2018-11-29T20:27:25.411Z,6.6
2018-11-29T20:28:25.307Z,0
2018-11-29T20:29:25.370Z,0
2018-11-29T20:30:25.319Z,1.8
2018-11-29T20:31:42.606Z,3.9
2018-11-29T20:32:26.834Z,3.9
2018-11-29T20:33:25.394Z,1.8
2018-11-29T20:34:25.283Z,3.9
2018-11-29T20:35:25.794Z,1.8
2018-11-29T20:36:25.271Z,0
2018-11-29T20:37:25.349Z,0
2018-11-29T20:38:25.653Z,0
2018-11-29T20:39:25.345Z,0
2018-11-29T20:40:25.349Z,0
2018-11-29T20:41:25.265Z,0
2018-11-29T20:42:25.262Z,0
2018-11-29T20:43:25.359Z,0
2018-11-29T20:44:25.299Z,0
2018-11-29T20:45:25.337Z,0
2018-11-29T20:46:25.326Z,0
2018-11-29T20:47:25.465Z,1.8
2018-11-29T20:48:25.315Z,1.8
2018-11-29T20:49:25.325Z,0
2018-11-29T20:50:25.296Z,3.9
2018-11-29T20:51:25.301Z,1.8
2018-11-29T20:52:25.347Z,0
2018-11-29T20:53:25.349Z,0
2018-11-29T20:54:25.292Z,3.9
2018-11-29T20:55:25.296Z,1.8
2018-11-29T20:56:25.287Z,3.9
2018-11-29T20:57:25.357Z,3.9
2018-11-29T20:58:25.272Z,0
2018-11-29T20:59:25.234Z,0
2018-11-29T21:00:25.328Z,0
2018-11-29T21:01:25.283Z,0
2018-11-29T21:02:25.622Z,0
2018-11-29T21:03:25.271Z,0
2018-11-29T21:04:25.307Z,3.9
2018-11-29T21:05:25.548Z,3.9
2018-11-29T21:06:25.303Z,1.8
2018-11-29T21:07:26.205Z,0
2018-11-29T21:08:25.764Z,1.8
2018-11-29T21:09:27.991Z,0
2018-11-29T21:10:25.367Z,0
2018-11-29T21:11:29.216Z,0
2018-11-29T21:12:25.222Z,0
2018-11-29T21:13:33.233Z,0
2018-11-29T21:14:25.522Z,0
2018-11-29T21:15:25.414Z,0
2018-11-29T21:16:25.339Z,0
2018-11-29T21:17:25.541Z,0
2018-11-29T21:18:25.393Z,0
2018-11-29T21:19:25.542Z,0
2018-11-29T21:20:25.460Z,1.8
2018-11-29T21:21:25.467Z,0
2018-11-29T21:22:39.410Z,0
2018-11-29T21:23:30.083Z,0
2018-11-29T21:24:29.038Z,0
2018-11-29T21:25:25.299Z,0
2018-11-29T21:26:25.312Z,0
2018-11-29T21:27:27.241Z,0
2018-11-29T21:28:26.048Z,0
2018-11-29T21:29:26.898Z,0
2018-11-29T21:30:25.600Z,0
2018-11-29T21:31:25.438Z,0
2018-11-29T21:32:25.370Z,0
2018-11-29T21:33:25.589Z,0
2018-11-29T21:34:26.096Z,0
2018-11-29T21:35:25.307Z,0
2018-11-29T21:36:25.280Z,3.9
2018-11-29T21:37:25.602Z,9.5
2018-11-29T21:38:25.645Z,6.6
2018-11-29T21:39:29.004Z,3.9
2018-11-29T21:40:26.227Z,3.9
2018-11-29T21:41:25.445Z,3.9
2018-11-29T21:42:25.350Z,9.5
2018-11-29T21:43:25.514Z,12.4
2018-11-29T21:44:25.482Z,12.4
2018-11-29T21:45:25.483Z,9.5
2018-11-29T21:46:25.447Z,12.4
2018-11-29T21:47:27.162Z,9.5
2018-11-29T21:48:25.461Z,6.6
2018-11-29T21:49:25.470Z,3.9
2018-11-29T21:50:25.442Z,1.8
2018-11-29T21:51:25.537Z,0
2018-11-29T21:52:25.508Z,1.8
2018-11-29T21:53:25.917Z,0
2018-11-29T21:54:26.283Z,0
2018-11-29T21:55:25.375Z,0
2018-11-29T21:56:25.491Z,1.8
2018-11-29T21:57:25.621Z,6.6
2018-11-29T21:58:28.658Z,6.6
2018-11-29T21:59:25.363Z,12.4
2018-11-29T22:00:25.496Z,9.5
2018-11-29T22:01:25.514Z,12.4
2018-11-29T22:02:25.445Z,6.6
2018-11-29T22:03:25.535Z,6.6
2018-11-29T22:04:25.393Z,15.4
2018-11-29T22:05:25.476Z,24.3
2018-11-29T22:06:25.697Z,24.3
2018-11-29T22:07:25.501Z,27.3
2018-11-29T22:08:28.573Z,21.3
2018-11-29T22:09:25.490Z,15.4
2018-11-29T22:10:26.113Z,6.6
2018-11-29T22:11:25.546Z,3.9
2018-11-29T22:12:25.486Z,9.5
2018-11-29T22:13:26.443Z,3.9
2018-11-29T22:14:25.577Z,3.9
2018-11-29T22:15:25.641Z,3.9
2018-11-29T22:16:25.418Z,0
2018-11-29T22:17:25.410Z,0
2018-11-29T22:18:25.348Z,6.6
2018-11-29T22:19:25.528Z,3.9
2018-11-29T22:20:25.365Z,3.9
2018-11-29T22:21:25.515Z,1.8
2018-11-29T22:22:29.559Z,3.9
2018-11-29T22:23:26.640Z,3.9
2018-11-29T22:24:28.476Z,1.8
2018-11-29T22:25:25.393Z,0
2018-11-29T22:26:29.111Z,3.9
2018-11-29T22:27:26.370Z,0
2018-11-29T22:28:27.282Z,0
2018-11-29T22:29:26.894Z,0
2018-11-29T22:30:28.954Z,3.9
2018-11-29T22:31:26.238Z,1.8
2018-11-29T22:32:27.021Z,3.9
2018-11-29T22:33:26.867Z,3.9
2018-11-29T22:34:26.108Z,3.9
2018-11-29T22:35:28.231Z,0
2018-11-29T22:36:26.446Z,0
2018-11-29T22:37:28.352Z,0
2018-11-29T22:38:27.749Z,0
2018-11-29T22:39:27.255Z,3.9
2018-11-29T22:40:29.054Z,0
2018-11-29T22:41:28.750Z,3.9
2018-11-29T22:42:28.233Z,3.9
2018-11-29T22:43:27.477Z,3.9
2018-11-29T22:44:27.123Z,3.9
2018-11-29T22:45:26.736Z,0
2018-11-29T22:46:29.977Z,0
2018-11-29T22:47:25.297Z,0
2018-11-29T22:48:28.768Z,0
2018-11-29T22:49:28.566Z,0
2018-11-29T22:50:26.513Z,1.8
2018-11-29T22:51:26.987Z,0
2018-11-29T22:52:27.471Z,0
2018-11-29T22:53:26.511Z,0
2018-11-29T22:54:27.345Z,0
2018-11-29T22:55:26.856Z,0
2018-11-29T22:56:25.199Z,0
2018-11-29T22:57:25.202Z,0
2018-11-29T22:58:25.235Z,0
2018-11-29T22:59:25.285Z,0
2018-11-29T23:00:25.254Z,0
2018-11-29T23:01:25.223Z,0
2018-11-29T23:02:25.273Z,0
2018-11-29T23:03:25.263Z,0
2018-11-29T23:04:25.283Z,3.9
2018-11-29T23:05:25.250Z,3.9
2018-11-29T23:06:25.269Z,3.9
2018-11-29T23:07:25.299Z,6.6
2018-11-29T23:08:25.277Z,3.9
2018-11-29T23:09:25.275Z,0
2018-11-29T23:10:25.311Z,1.8
2018-11-29T23:11:25.257Z,0
2018-11-29T23:12:25.251Z,0
2018-11-29T23:13:25.265Z,0
2018-11-29T23:14:25.252Z,0
2018-11-29T23:15:25.275Z,0
2018-11-29T23:16:25.331Z,0
2018-11-29T23:17:25.292Z,0
2018-11-29T23:18:25.309Z,0
2018-11-29T23:19:25.314Z,0
2018-11-29T23:20:25.245Z,0
2018-11-29T23:21:25.337Z,0
2018-11-29T23:22:25.250Z,0
2018-11-29T23:23:25.334Z,0
2018-11-29T23:24:25.283Z,0
2018-11-29T23:25:25.336Z,1.8
2018-11-29T23:26:25.281Z,0
2018-11-29T23:27:25.260Z,3.9
2018-11-29T23:28:25.244Z,15.4
2018-11-29T23:29:25.349Z,15.4
2018-11-29T23:30:25.259Z,12.4
2018-11-29T23:31:25.188Z,9.5
2018-11-29T23:32:25.255Z,24.3
2018-11-29T23:33:25.238Z,12.4
2018-11-29T23:34:25.308Z,9.5
2018-11-29T23:35:25.255Z,15.4
2018-11-29T23:36:25.251Z,6.6
2018-11-29T23:37:25.186Z,21.3
2018-11-29T23:38:25.243Z,15.4
2018-11-29T23:39:25.327Z,15.4
2018-11-29T23:40:25.243Z,27.3
2018-11-29T23:41:25.300Z,15.4
2018-11-29T23:42:25.381Z,30.3
2018-11-29T23:43:25.241Z,36.3
2018-11-29T23:44:25.257Z,24.3
2018-11-29T23:45:25.231Z,24.3
2018-11-29T23:46:25.375Z,33.3
2018-11-29T23:47:25.214Z,24.3
2018-11-29T23:48:25.229Z,15.4
2018-11-29T23:49:25.266Z,21.3
2018-11-29T23:50:25.320Z,27.3
2018-11-29T23:51:25.246Z,21.3
2018-11-29T23:52:25.243Z,12.4
2018-11-29T23:53:25.178Z,18.3
2018-11-29T23:54:25.296Z,12.4
2018-11-29T23:55:25.350Z,21.3
2018-11-29T23:56:25.261Z,15.4
2018-11-29T23:57:25.315Z,30.3
2018-11-29T23:58:25.184Z,39.3
2018-11-29T23:59:25.281Z,39.3
